Flight Track Log - Related Links

Times and Time Zones

All times are in EDT time to prevent confusion due to time zone crossing. See the N960DL flight status page for this flight to view local times or setup timezone preferences in your user account.

Time Position Orientation Groundspeed Altitude Reporting Facility
EDT Latitude Longitude Course Direction KTS MPH feet Rate Location/Type
10:18AM 33.6333 -84.3833 90° East 181 208 2,100  Level Atlanta TRACON
10:19AM 33.6333 -84.3000 90° East 256 295 4,100 2,524 Climbing Atlanta TRACON
10:21AM 33.6333 -84.2000 90° East 302 348 7,400 2,534 Climbing Atlanta TRACON
10:22AM 33.6647 -84.0639 74° East 292 336 10,900 1,858 Climbing Atlanta Center
10:23AM 33.7336 -83.9739 47° Northeast 320 368 12,200 1,900 Climbing Atlanta Center
10:24AM 33.8108 -83.8739 47° Northeast 378 435 14,700 2,550 Climbing Atlanta Center
10:25AM 33.8942 -83.7611 48° Northeast 405 466 17,300 2,100 Climbing Atlanta Center
10:26AM 33.9711 -83.6481 51° Northeast 419 482 18,900 1,800 Climbing Atlanta Center
10:27AM 34.0478 -83.5297 52° Northeast 437 503 20,900 1,850 Climbing Atlanta Center
10:28AM 34.1244 -83.4064 53° Northeast 449 517 22,600 1,350 Climbing Atlanta Center
10:29AM 34.2053 -83.2803 52° Northeast 460 529 23,600 1,300 Climbing Atlanta Center
10:30AM 34.2814 -83.1489 55° Northeast 472 543 25,200 1,600 Climbing Atlanta Center
10:31AM 34.3619 -83.0197 53° Northeast 480 552 26,800 1,650 Climbing Atlanta Center
10:32AM 34.4464 -82.8903 52° Northeast 480 552 28,500 1,150 Climbing Atlanta Center
10:33AM 34.5264 -82.7606 53° Northeast 480 552 29,100 950 Climbing Atlanta Center
10:34AM 34.6044 -82.6331 53° Northeast 480 552 30,400 950 Climbing Atlanta Center
10:35AM 34.6758 -82.5158 53° Northeast 480 552 31,000 600 Climbing Atlanta Center
10:36AM 34.7536 -82.3878 54° Northeast 475 547 31,600 800 Climbing Atlanta Center
10:37AM 34.8331 -82.2572 53° Northeast 475 547 32,600 700 Climbing Atlanta Center
10:38AM 34.9208 -82.1136 53° Northeast 481 554 33,000 200 Climbing Atlanta Center
10:39AM 34.9981 -81.9850 54° Northeast 481 554 33,000  Level Atlanta Center
10:40AM 35.0728 -81.8486 56° Northeast 481 554 33,000  Level Atlanta Center
10:41AM 35.1456 -81.7147 56° Northeast 481 554 33,000  Level Atlanta Center
10:42AM 35.2178 -81.5753 58° Northeast 481 554 33,000  Level Atlanta Center
10:43AM 35.2900 -81.4383 57° Northeast 481 554 33,000  Level Atlanta Center
10:44AM 35.3622 -81.2986 58° Northeast 487 560 33,000 -850 Level Atlanta Center
10:45AM 35.4319 -81.1586 59° Northeast 487 560 31,300 -1,550 Descending Atlanta Center
10:46AM 35.5058 -81.0208 57° Northeast 487 560 29,900 -1,150 Descending Atlanta Center
10:47AM 35.5775 -80.8853 57° Northeast 482 555 29,000 -450 Descending Atlanta Center
10:48AM 35.6472 -80.7522 57° Northeast 475 547 29,000  Level Atlanta Center
10:49AM 35.7186 -80.6164 57° Northeast 470 541 29,000  Level Atlanta Center
10:50AM 35.7878 -80.4831 57° Northeast 469 540 29,000  Level Atlanta Center
10:53AM 35.9522 -80.1542 58° Northeast 466 536 29,000  Level Washington Center
10:54AM 36.0128 -80.0397 57° Northeast 454 522 29,000  Level Washington Center
10:55AM 36.0867 -79.9075 55° Northeast 454 522 29,000  Level Washington Center
10:56AM 36.1647 -79.7625 56° Northeast 454 522 29,000  Level Washington Center
10:57AM 36.2314 -79.6450 55° Northeast 459 528 29,000 -756 Level Washington Center
10:58AM 36.3114 -79.5022 55° Northeast 454 522 27,500 -2,250 Descending Washington Center
10:59AM 36.3842 -79.3769 54° Northeast 454 522 24,500 -2,231 Descending Washington Center
11:00AM 36.4486 -79.2536 57° Northeast 454 522 23,000 -1,059 Descending Washington Center
11:01AM 36.5322 -79.1100 54° Northeast 460 529 22,400 -1,000 Descending Washington Center
11:02AM 36.6047 -78.9814 55° Northeast 455 524 21,000 -950 Descending Washington Center
11:03AM 36.6753 -78.8447 57° Northeast 455 524 20,500 -1,000 Descending Washington Center
11:04AM 36.7433 -78.7206 56° Northeast 445 512 19,000 -744 Descending Washington Center
11:05AM 36.8044 -78.6061 56° Northeast 445 512 19,000 -454 Level Washington Center
11:06AM 36.8764 -78.4817 54° Northeast 435 501 18,100 -1,150 Descending Washington Center
11:07AM 36.9375 -78.3697 56° Northeast 435 501 16,700 -1,900 Descending Washington Center
11:08AM 37.0181 -78.2217 56° Northeast 435 501 14,300 -2,218 Descending Washington Center
11:09AM 37.0744 -78.1194 55° Northeast 409 471 12,300 -1,900 Descending Washington Center
11:10AM 37.1331 -78.0094 56° Northeast 390 449 10,500 -1,091 Descending Washington Center
11:11AM 37.1850 -77.9147 55° Northeast 360 414 10,100 -496 Descending Washington Center
11:12AM 37.2347 -77.8300 54° Northeast 322 371 9,500 -958 Descending Washington Center
11:13AM 37.2800 -77.7400 58° Northeast 303 349 8,200 -1,300 Descending Washington Center
11:14AM 37.3089 -77.6494 68° East 283 326 6,900 -1,200 Descending Washington Center
11:15AM 37.3331 -77.5639 70° East 269 310 5,800 -1,261 Descending Washington Center
11:16AM 37.3617 -77.4811 66° East 269 310 4,400 -1,150 Descending Washington Center
11:17AM 37.3858 -77.4006 69° East 259 298 3,500 -896 Descending Washington Center
11:18AM 37.4167 -77.2833 72° East 197 227 2,100 -932 Descending Potomac TRACON
11:19AM 37.4667 -77.2833 360° North 190 219 1,200 -1,000 Descending Potomac TRACON
11:21AM 37.5000 -77.3167 North  Level FlightAware Approximate
11:28AM 37.5052 -77.3197 North  Level Estimated

Login

Don't have an account? Register now (free) for customized features, flight alerts, and more!